createdAt,value
2022-08-26T00:01:56.935Z,4.05
2022-08-26T00:04:59.117Z,4.28
2022-08-26T00:08:01.069Z,3.88
2022-08-26T00:11:03.430Z,4.50
2022-08-26T00:17:08.728Z,4.00
2022-08-26T00:20:14.206Z,4.18
2022-08-26T00:23:16.219Z,4.25
2022-08-26T00:26:18.679Z,3.88
2022-08-26T00:29:22.876Z,4.45
2022-08-26T00:32:24.812Z,4.55
2022-08-26T00:35:29.260Z,4.07
2022-08-26T00:38:38.336Z,4.22
2022-08-26T00:41:41.708Z,4.05
2022-08-26T00:44:43.721Z,3.90
2022-08-26T00:48:01.327Z,4.40
2022-08-26T00:51:16.472Z,3.80
2022-08-26T00:54:23.110Z,4.03
2022-08-26T00:57:25.599Z,4.00
2022-08-26T01:00:30.256Z,4.07
2022-08-26T01:03:34.810Z,4.10
2022-08-26T01:06:36.951Z,4.13
2022-08-26T01:09:39.782Z,4.28
2022-08-26T01:12:57.958Z,4.00
2022-08-26T01:16:04.402Z,3.70
2022-08-26T01:19:21.653Z,3.67
2022-08-26T01:22:30.141Z,3.60
2022-08-26T01:25:37.114Z,3.40
2022-08-26T01:28:41.987Z,3.95
2022-08-26T01:31:47.414Z,3.70
2022-08-26T01:34:49.744Z,3.75
2022-08-26T01:40:56.341Z,3.67
2022-08-26T01:44:00.872Z,3.63
2022-08-26T01:47:05.165Z,4.07
2022-08-26T01:50:27.521Z,3.45
2022-08-26T01:53:31.151Z,3.43
2022-08-26T01:56:36.576Z,3.90
2022-08-26T01:59:38.713Z,3.65
2022-08-26T02:02:46.678Z,3.88
2022-08-26T02:06:00.962Z,3.60
2022-08-26T02:09:05.329Z,3.78
2022-08-26T02:12:08.790Z,3.72
2022-08-26T02:15:12.981Z,3.63
2022-08-26T02:18:15.027Z,4.15
2022-08-26T02:21:18.059Z,3.63
2022-08-26T02:27:32.214Z,3.47
2022-08-26T02:30:34.683Z,4.03
2022-08-26T02:33:37.853Z,4.18
2022-08-26T02:36:45.275Z,4.07
2022-08-26T02:39:47.288Z,4.00
2022-08-26T02:42:50.333Z,4.45
2022-08-26T02:45:55.286Z,3.92
2022-08-26T02:48:58.400Z,4.40
2022-08-26T02:52:01.871Z,3.72
2022-08-26T02:55:06.179Z,4.38
2022-08-26T02:58:08.513Z,4.15
2022-08-26T03:04:22.037Z,4.60
2022-08-26T03:07:28.065Z,5.32
2022-08-26T03:10:32.286Z,4.35
2022-08-26T03:13:36.349Z,4.72
2022-08-26T03:16:38.369Z,4.60
2022-08-26T03:19:40.222Z,4.90
2022-08-26T03:22:43.230Z,4.90
2022-08-26T03:25:50.399Z,5.00
2022-08-26T03:29:11.112Z,5.40
2022-08-26T03:32:13.158Z,4.72
2022-08-26T03:35:15.104Z,5.57
2022-08-26T03:38:17.056Z,5.53
2022-08-26T03:41:19.041Z,6.25
2022-08-26T03:44:21.282Z,5.35
2022-08-26T03:47:23.518Z,5.53
2022-08-26T03:50:26.766Z,5.72
2022-08-26T03:53:28.883Z,5.20
2022-08-26T03:56:33.479Z,5.20
2022-08-26T03:59:35.437Z,5.53
2022-08-26T04:02:38.993Z,5.15
2022-08-26T04:05:40.911Z,5.18
2022-08-26T04:08:43.297Z,5.40
2022-08-26T04:11:46.234Z,5.70
2022-08-26T04:14:53.166Z,5.57
2022-08-26T04:17:57.362Z,5.78
2022-08-26T04:20:59.504Z,5.22
2022-08-26T04:24:03.559Z,5.00
2022-08-26T04:27:10.515Z,4.80
2022-08-26T04:30:13.239Z,4.80
2022-08-26T04:33:15.800Z,5.03
2022-08-26T04:36:20.096Z,4.88
2022-08-26T04:39:22.385Z,4.70
2022-08-26T04:42:25.902Z,4.82
2022-08-26T04:45:28.652Z,5.00
2022-08-26T04:48:32.053Z,4.85
2022-08-26T04:51:35.996Z,4.70
2022-08-26T04:54:38.947Z,4.72
2022-08-26T04:57:43.919Z,4.72
2022-08-26T05:00:49.961Z,4.97
2022-08-26T05:03:52.648Z,4.60
2022-08-26T05:06:57.896Z,4.75
2022-08-26T05:10:05.337Z,4.50
2022-08-26T05:13:16.059Z,4.32
2022-08-26T05:16:19.040Z,4.55
2022-08-26T05:19:22.413Z,4.22
2022-08-26T05:22:25.169Z,4.45
2022-08-26T05:25:28.841Z,4.22
2022-08-26T05:28:32.034Z,4.10
2022-08-26T05:31:35.102Z,3.90
2022-08-26T05:34:37.594Z,4.53
2022-08-26T05:37:40.225Z,4.18
2022-08-26T05:40:45.322Z,4.13
2022-08-26T05:43:47.467Z,3.92
2022-08-26T05:46:51.791Z,3.90
2022-08-26T05:49:55.520Z,3.55
2022-08-26T05:52:59.209Z,4.10
2022-08-26T05:56:01.293Z,4.07
2022-08-26T05:59:03.719Z,3.70
2022-08-26T06:02:07.216Z,4.93
2022-08-26T06:05:09.833Z,4.35
2022-08-26T06:08:13.639Z,4.05
2022-08-26T06:11:18.883Z,4.40
2022-08-26T06:14:20.891Z,4.10
2022-08-26T06:17:22.841Z,3.95
2022-08-26T06:20:25.484Z,4.00
2022-08-26T06:23:48.284Z,4.10
2022-08-26T06:26:53.559Z,4.68
2022-08-26T06:29:55.469Z,3.58
2022-08-26T06:32:57.417Z,3.42
2022-08-26T06:36:01.220Z,3.53
2022-08-26T06:39:07.622Z,3.63
2022-08-26T06:42:11.015Z,3.80
2022-08-26T06:45:14.658Z,3.30
2022-08-26T06:48:19.570Z,3.95
2022-08-26T06:51:30.372Z,4.05
2022-08-26T06:54:32.479Z,3.90
2022-08-26T07:00:47.519Z,5.00
2022-08-26T07:03:54.767Z,4.70
2022-08-26T07:06:59.281Z,4.30
2022-08-26T07:10:02.050Z,3.42
2022-08-26T07:13:04.120Z,3.55
2022-08-26T07:16:12.571Z,4.32
2022-08-26T07:19:17.453Z,3.83
2022-08-26T07:22:30.541Z,4.00
2022-08-26T07:28:34.762Z,3.85
2022-08-26T07:31:42.423Z,4.10
2022-08-26T07:34:45.745Z,6.55
2022-08-26T07:37:47.707Z,3.70
2022-08-26T07:40:50.811Z,3.95
2022-08-26T07:43:54.223Z,3.90
2022-08-26T07:46:57.289Z,3.78
2022-08-26T07:49:59.391Z,3.78
2022-08-26T07:53:03.570Z,4.00
2022-08-26T07:56:06.595Z,3.30
2022-08-26T07:59:14.075Z,3.30
2022-08-26T08:02:17.168Z,2.83
2022-08-26T08:08:27.800Z,2.90
2022-08-26T08:11:31.412Z,3.45
2022-08-26T08:14:34.731Z,3.42
2022-08-26T08:17:37.170Z,3.30
2022-08-26T08:20:40.572Z,3.90
2022-08-26T08:23:46.997Z,3.20
2022-08-26T08:26:49.504Z,3.67
2022-08-26T08:29:56.981Z,3.83
2022-08-26T08:32:59.076Z,4.22
2022-08-26T08:36:02.392Z,3.90
2022-08-26T08:39:04.987Z,4.07
2022-08-26T08:42:28.664Z,3.70
2022-08-26T08:45:44.775Z,3.70
2022-08-26T08:48:56.976Z,3.90
2022-08-26T08:52:06.997Z,3.50
2022-08-26T08:55:10.988Z,3.67
2022-08-26T08:58:19.667Z,3.65
2022-08-26T09:01:25.712Z,3.50
2022-08-26T09:04:39.640Z,3.70
2022-08-26T09:07:54.255Z,3.83
2022-08-26T09:11:00.502Z,3.70
2022-08-26T09:14:03.060Z,4.00
2022-08-26T09:17:24.076Z,3.90
2022-08-26T09:20:53.901Z,3.63
2022-08-26T09:23:56.965Z,4.85
2022-08-26T09:26:59.445Z,4.70
2022-08-26T09:30:01.378Z,5.18
2022-08-26T09:33:10.187Z,4.20
2022-08-26T09:36:41.019Z,4.45
2022-08-26T09:39:43.512Z,4.45
2022-08-26T09:42:46.477Z,5.30
2022-08-26T09:46:09.696Z,3.95
2022-08-26T09:49:36.081Z,3.50
2022-08-26T09:52:40.385Z,3.70
2022-08-26T09:55:47.772Z,3.33
2022-08-26T09:58:51.821Z,3.42
2022-08-26T10:01:55.067Z,3.60
2022-08-26T10:05:09.013Z,3.15
2022-08-26T10:08:20.953Z,4.47
2022-08-26T10:11:43.188Z,3.45
2022-08-26T10:14:57.892Z,3.83
2022-08-26T10:18:11.285Z,3.40
2022-08-26T10:21:20.888Z,4.47
2022-08-26T10:24:31.621Z,4.40
2022-08-26T10:27:55.064Z,4.70
2022-08-26T10:31:28.256Z,5.88
2022-08-26T10:34:32.585Z,3.67
2022-08-26T10:37:51.020Z,6.25
2022-08-26T10:41:09.700Z,3.60
2022-08-26T10:44:15.249Z,3.53
2022-08-26T10:47:29.184Z,3.78
2022-08-26T10:50:41.536Z,3.70
2022-08-26T10:54:03.263Z,4.40
2022-08-26T11:00:39.812Z,3.72
2022-08-26T11:03:57.916Z,3.33
2022-08-26T11:07:32.768Z,4.03
2022-08-26T11:10:43.563Z,3.63
2022-08-26T11:13:58.018Z,3.55
2022-08-26T11:17:04.413Z,3.38
2022-08-26T11:20:13.481Z,3.10
2022-08-26T11:23:28.447Z,3.42
2022-08-26T11:26:56.346Z,2.45
2022-08-26T11:30:05.026Z,1.80
2022-08-26T11:33:08.268Z,2.08
2022-08-26T11:36:28.214Z,1.77
2022-08-26T11:39:53.878Z,2.05
2022-08-26T11:43:06.848Z,1.80
2022-08-26T11:46:11.769Z,2.00
2022-08-26T11:49:15.282Z,2.17
2022-08-26T11:52:22.404Z,2.42
2022-08-26T11:55:24.371Z,1.70
2022-08-26T11:58:27.984Z,1.90
2022-08-26T12:01:36.301Z,1.83
2022-08-26T12:04:42.055Z,1.90
2022-08-26T12:07:53.645Z,2.00
2022-08-26T12:11:14.176Z,1.80
2022-08-26T12:14:25.169Z,1.92
2022-08-26T12:17:29.473Z,2.30
2022-08-26T12:20:46.587Z,1.90
2022-08-26T12:23:51.659Z,1.90
2022-08-26T12:27:12.008Z,1.52
2022-08-26T12:30:21.259Z,1.90
2022-08-26T12:33:23.550Z,1.70
2022-08-26T12:36:31.706Z,2.20
2022-08-26T12:39:36.873Z,2.22
2022-08-26T12:42:42.572Z,2.08
2022-08-26T12:45:57.811Z,2.40
2022-08-26T12:49:04.118Z,2.30
2022-08-26T12:52:08.330Z,2.22
2022-08-26T12:55:33.505Z,2.30
2022-08-26T12:58:39.066Z,2.72
2022-08-26T13:01:43.830Z,2.63
2022-08-26T13:04:46.351Z,2.70
2022-08-26T13:08:11.903Z,2.30
2022-08-26T13:11:21.632Z,2.72
2022-08-26T13:14:29.315Z,3.15
2022-08-26T13:17:32.846Z,2.90
2022-08-26T13:20:35.567Z,2.97
2022-08-26T13:23:42.350Z,2.67
2022-08-26T13:26:46.891Z,2.70
2022-08-26T13:29:49.789Z,2.60
2022-08-26T13:32:58.114Z,2.58
2022-08-26T13:36:00.481Z,2.72
2022-08-26T13:39:02.615Z,2.50
2022-08-26T13:42:04.665Z,6.78
2022-08-26T13:45:07.171Z,3.30
2022-08-26T13:48:10.003Z,3.90
2022-08-26T13:51:12.745Z,3.63
2022-08-26T13:54:14.760Z,3.65
2022-08-26T13:57:16.899Z,3.72
2022-08-26T14:00:19.815Z,4.50
2022-08-26T14:03:22.464Z,4.35
2022-08-26T14:06:25.517Z,4.18
2022-08-26T14:09:27.662Z,3.08
2022-08-26T14:12:29.855Z,3.15
2022-08-26T14:15:37.939Z,7.90
2022-08-26T14:18:46.197Z,14.23
2022-08-26T14:21:50.728Z,5.95
2022-08-26T14:24:53.065Z,2.92
2022-08-26T14:27:55.633Z,2.70
2022-08-26T14:30:59.407Z,2.80
2022-08-26T14:34:04.983Z,2.42
2022-08-26T14:37:08.213Z,2.65
2022-08-26T14:40:12.180Z,2.38
2022-08-26T14:43:15.918Z,2.58
2022-08-26T14:46:20.850Z,2.92
2022-08-26T14:49:24.509Z,3.55
2022-08-26T14:52:29.703Z,6.75
2022-08-26T14:55:35.802Z,9.15
2022-08-26T14:58:37.776Z,11.73
2022-08-26T15:01:40.050Z,13.68
2022-08-26T15:04:42.174Z,14.48
2022-08-26T15:07:45.658Z,8.20
2022-08-26T15:10:47.626Z,4.60
2022-08-26T15:16:54.652Z,3.03
2022-08-26T15:19:56.893Z,3.60
2022-08-26T15:23:03.311Z,4.20
2022-08-26T15:26:10.699Z,4.22
2022-08-26T15:29:13.534Z,5.57
2022-08-26T15:32:15.622Z,5.60
2022-08-26T15:35:18.942Z,5.13
2022-08-26T15:38:20.902Z,3.90
2022-08-26T15:47:28.134Z,3.00
2022-08-26T15:50:30.726Z,4.40
2022-08-26T15:53:34.854Z,3.67
2022-08-26T15:56:38.674Z,3.55
2022-08-26T15:59:40.758Z,3.60
2022-08-26T16:02:43.837Z,4.13
2022-08-26T16:05:46.963Z,6.95
2022-08-26T16:08:50.209Z,4.90
2022-08-26T16:11:52.270Z,6.05
2022-08-26T16:14:54.272Z,5.43
2022-08-26T16:21:13.537Z,4.15
2022-08-26T16:24:16.770Z,4.03
2022-08-26T16:27:18.870Z,4.00
2022-08-26T16:30:25.222Z,5.07
2022-08-26T16:33:29.519Z,4.43
2022-08-26T16:36:32.337Z,4.05
2022-08-26T16:39:34.388Z,4.32
2022-08-26T16:42:42.641Z,3.58
2022-08-26T16:48:46.582Z,4.70
2022-08-26T16:54:50.462Z,4.72
2022-08-26T17:00:57.094Z,4.90
2022-08-26T17:03:59.130Z,4.80
2022-08-26T17:10:04.681Z,5.55
2022-08-26T17:13:06.745Z,5.25
2022-08-26T17:19:13.177Z,6.15
2022-08-26T17:25:30.263Z,6.30
2022-08-26T17:28:32.473Z,5.90
2022-08-26T17:31:35.065Z,5.75
2022-08-26T17:34:37.093Z,5.53
2022-08-26T17:40:41.688Z,5.53
2022-08-26T17:43:43.776Z,5.40
2022-08-26T17:49:50.005Z,5.50
2022-08-26T17:52:52.166Z,5.82
2022-08-26T17:55:54.095Z,5.40
2022-08-26T18:02:07.648Z,5.80
2022-08-26T18:05:12.270Z,6.38
2022-08-26T18:08:16.536Z,6.00
2022-08-26T18:11:21.255Z,5.65
2022-08-26T18:14:25.372Z,5.60
2022-08-26T18:17:27.507Z,5.25
2022-08-26T18:23:34.032Z,5.15
2022-08-26T18:26:40.692Z,5.10
2022-08-26T18:29:47.412Z,5.03
2022-08-26T18:32:50.818Z,5.38
2022-08-26T18:35:54.494Z,5.38
2022-08-26T18:38:57.978Z,5.38
2022-08-26T18:42:03.157Z,5.35
2022-08-26T18:45:06.790Z,4.70
2022-08-26T18:48:15.182Z,5.03
2022-08-26T18:51:20.792Z,5.38
2022-08-26T18:54:23.306Z,5.25
2022-08-26T18:57:26.425Z,5.25
2022-08-26T19:03:31.242Z,5.93
2022-08-26T19:06:39.608Z,4.97
2022-08-26T19:09:43.944Z,5.28
2022-08-26T19:12:51.944Z,5.07
2022-08-26T19:15:55.890Z,5.10
2022-08-26T19:18:59.143Z,5.28
2022-08-26T19:22:01.532Z,5.25
2022-08-26T19:25:04.336Z,5.47
2022-08-26T19:28:06.521Z,6.30
2022-08-26T19:31:13.765Z,5.78
2022-08-26T19:34:21.678Z,5.60
2022-08-26T19:37:27.234Z,6.00
2022-08-26T19:40:32.542Z,6.07
2022-08-26T19:43:35.224Z,5.53
2022-08-26T19:49:47.862Z,5.35
2022-08-26T19:52:50.859Z,7.65
2022-08-26T19:55:52.855Z,6.90
2022-08-26T20:02:01.446Z,6.07
2022-08-26T20:05:06.035Z,5.75
2022-08-26T20:08:08.144Z,5.68
2022-08-26T20:11:19.501Z,5.13
2022-08-26T20:14:23.179Z,4.93
2022-08-26T20:17:25.343Z,5.15
2022-08-26T20:23:48.113Z,4.40
2022-08-26T20:26:51.575Z,5.38
2022-08-26T20:29:55.725Z,5.15
2022-08-26T20:32:57.670Z,4.85
2022-08-26T20:35:59.735Z,6.20
2022-08-26T20:42:06.969Z,5.65
2022-08-26T20:45:26.134Z,5.60
2022-08-26T20:48:28.308Z,5.50
2022-08-26T20:51:30.361Z,5.70
2022-08-26T20:57:34.776Z,5.20
2022-08-26T21:00:38.449Z,5.13
2022-08-26T21:03:41.006Z,5.20
2022-08-26T21:06:47.264Z,4.88
2022-08-26T21:09:55.078Z,5.35
2022-08-26T21:12:58.006Z,5.95
2022-08-26T21:16:00.073Z,5.90
2022-08-26T21:22:05.686Z,6.40
2022-08-26T21:25:08.410Z,6.43
2022-08-26T21:28:12.961Z,6.60
2022-08-26T21:31:19.952Z,6.63
2022-08-26T21:34:22.116Z,6.70
2022-08-26T21:40:27.809Z,6.38
2022-08-26T21:43:35.008Z,6.47
2022-08-26T21:46:41.905Z,6.50
2022-08-26T21:49:44.301Z,6.88
2022-08-26T21:52:46.376Z,5.90
2022-08-26T21:58:55.158Z,6.05
2022-08-26T22:01:58.090Z,5.80
2022-08-26T22:05:00.112Z,6.30
2022-08-26T22:08:02.077Z,6.10
2022-08-26T22:11:04.948Z,6.18
2022-08-26T22:14:07.278Z,6.43
2022-08-26T22:17:09.544Z,6.13
2022-08-26T22:20:16.640Z,5.85
2022-08-26T22:23:20.515Z,5.93
2022-08-26T22:26:25.782Z,6.30
2022-08-26T22:29:28.107Z,5.93
2022-08-26T22:35:31.999Z,5.95
2022-08-26T22:38:34.592Z,5.28
2022-08-26T22:41:36.753Z,5.43
2022-08-26T22:47:41.655Z,5.68
2022-08-26T22:50:45.957Z,5.88
2022-08-26T22:53:48.009Z,6.07
2022-08-26T22:56:50.147Z,5.80
2022-08-26T23:02:54.117Z,5.88
2022-08-26T23:08:58.314Z,5.68
2022-08-26T23:12:00.462Z,5.90
2022-08-26T23:18:05.266Z,5.78
2022-08-26T23:21:07.376Z,5.88
2022-08-26T23:27:12.207Z,5.40
2022-08-26T23:33:24.016Z,5.43
2022-08-26T23:36:26.198Z,5.43
2022-08-26T23:39:28.984Z,5.60
2022-08-26T23:42:31.020Z,4.80
2022-08-26T23:48:35.158Z,5.05
2022-08-26T23:51:57.362Z,6.05
2022-08-26T23:54:59.524Z,5.68
